Time;durP1;ratioP1;P1;durP2;ratioP2;P2;SDS_P1;SDS_P2;PMS_P1;PMS_P2;Temp;Humidity;BMP_temperature;BMP_pressure;BME280_temperature;BME280_humidity;BME280_pressure;Samples;Min_cycle;Max_cycle;Signal;HPM_P1;HPM_P2
2021/07/05 00:00:31;;;;;;;1.23;1.00;;;14.60;99.90;;;;;;5029959;28;20771;-76
2021/07/05 00:02:57;;;;;;;2.35;0.90;;;14.60;99.90;;;;;;5029421;28;20026;-76
2021/07/05 00:05:22;;;;;;;1.13;0.80;;;14.50;99.90;;;;;;5036554;28;20062;-75
2021/07/05 00:07:48;;;;;;;1.48;1.10;;;14.50;99.90;;;;;;5029475;28;20143;-75
2021/07/05 00:10:21;;;;;;;2.85;1.30;;;14.50;99.90;;;;;;5029946;28;20068;-76
2021/07/05 00:12:48;;;;;;;2.40;0.80;;;14.40;99.90;;;;;;5029554;28;20422;-76
2021/07/05 00:15:21;;;;;;;3.72;1.33;;;14.40;99.90;;;;;;5029600;28;20040;-75
2021/07/05 00:17:49;;;;;;;1.95;1.02;;;14.40;99.90;;;;;;5028850;28;20478;-76
2021/07/05 00:20:15;;;;;;;1.80;1.13;;;14.30;99.90;;;;;;5029401;28;20061;-76
2021/07/05 00:22:41;;;;;;;3.08;1.00;;;14.30;99.90;;;;;;5029600;28;20071;-75
2021/07/05 00:25:07;;;;;;;2.78;0.88;;;14.20;99.90;;;;;;5028833;28;20444;-75
2021/07/05 00:27:32;;;;;;;3.25;0.98;;;14.10;99.90;;;;;;5029210;28;20132;-76
2021/07/05 00:29:58;;;;;;;5.35;1.50;;;14.10;99.90;;;;;;5029067;28;20060;-75
2021/07/05 00:32:24;;;;;;;3.13;0.95;;;14.10;99.90;;;;;;5029148;28;20381;-76
2021/07/05 00:34:51;;;;;;;5.68;1.00;;;14.10;99.90;;;;;;5029422;28;20429;-76
2021/07/05 00:37:17;;;;;;;3.83;1.10;;;14.00;99.90;;;;;;5028735;28;20029;-76
2021/07/05 00:39:42;;;;;;;2.60;1.00;;;14.00;99.90;;;;;;5028818;28;20033;-76
2021/07/05 00:42:08;;;;;;;3.90;1.13;;;14.00;99.90;;;;;;5029054;28;20104;-76
2021/07/05 00:44:34;;;;;;;3.55;1.10;;;14.00;99.90;;;;;;5028763;28;20045;-75
2021/07/05 00:46:59;;;;;;;2.08;0.93;;;13.90;99.90;;;;;;5030409;28;20129;-76
2021/07/05 00:49:25;;;;;;;1.08;0.90;;;13.90;99.90;;;;;;5030356;28;20033;-76
2021/07/05 00:51:51;;;;;;;3.40;1.10;;;13.90;99.90;;;;;;5030334;28;20026;-76
2021/07/05 00:54:17;;;;;;;1.63;1.00;;;13.90;99.90;;;;;;5011137;28;20139;-77
2021/07/05 00:56:42;;;;;;;2.00;1.30;;;13.80;99.90;;;;;;5030773;28;20486;-76
2021/07/05 00:59:08;;;;;;;1.77;1.00;;;13.80;99.90;;;;;;5030064;28;20029;-76
2021/07/05 01:01:34;;;;;;;3.00;1.10;;;13.80;99.90;;;;;;5028913;28;20104;-76
2021/07/05 01:04:00;;;;;;;2.25;1.00;;;13.70;99.90;;;;;;5032758;28;20021;-76
2021/07/05 01:06:27;;;;;;;1.95;1.00;;;13.70;99.90;;;;;;5014025;28;20030;-76
2021/07/05 01:08:53;;;;;;;6.50;1.27;;;13.70;99.90;;;;;;5028181;28;20029;-76
2021/07/05 01:11:21;;;;;;;2.53;1.02;;;13.70;99.90;;;;;;5028069;28;20029;-76
2021/07/05 01:13:47;;;;;;;3.53;1.20;;;13.70;99.90;;;;;;5028246;28;20067;-76
2021/07/05 01:16:13;;;;;;;2.70;1.17;;;13.70;99.90;;;;;;5028096;28;20025;-76
2021/07/05 01:18:39;;;;;;;2.97;1.33;;;13.60;99.90;;;;;;5010190;28;20457;-76
2021/07/05 01:21:05;;;;;;;3.65;1.17;;;13.60;99.90;;;;;;5027967;28;20029;-76
2021/07/05 01:23:31;;;;;;;2.05;1.40;;;13.60;99.90;;;;;;5027812;28;20147;-77
2021/07/05 01:25:57;;;;;;;1.98;1.30;;;13.60;99.90;;;;;;5028269;28;20104;-76
2021/07/05 01:28:22;;;;;;;4.30;1.30;;;13.60;99.90;;;;;;5009656;28;20026;-76
2021/07/05 01:30:48;;;;;;;4.50;1.73;;;13.60;99.90;;;;;;5028191;28;20045;-76
2021/07/05 01:33:15;;;;;;;3.88;1.20;;;13.60;99.90;;;;;;5027624;28;20029;-76
2021/07/05 01:35:42;;;;;;;3.20;1.10;;;13.60;99.90;;;;;;5027483;28;20092;-76
2021/07/05 01:38:13;;;;;;;2.63;1.20;;;13.60;99.90;;;;;;5012279;28;20056;-72
2021/07/05 01:40:40;;;;;;;4.80;1.30;;;13.60;99.90;;;;;;5034255;28;20037;-72
2021/07/05 01:43:05;;;;;;;2.45;1.30;;;13.60;99.90;;;;;;5034358;28;20056;-72
2021/07/05 01:45:32;;;;;;;1.80;1.25;;;13.70;99.90;;;;;;5034242;28;20439;-72
2021/07/05 01:47:59;;;;;;;2.83;1.23;;;13.70;99.90;;;;;;5034114;28;20075;-72
2021/07/05 01:50:25;;;;;;;2.72;1.15;;;13.70;99.90;;;;;;5034297;28;20553;-72
2021/07/05 01:52:52;;;;;;;4.10;1.30;;;13.70;99.90;;;;;;5034210;28;20037;-72
2021/07/05 01:55:24;;;;;;;3.67;1.20;;;13.70;99.90;;;;;;5034256;28;20040;-72
2021/07/05 01:57:49;;;;;;;4.53;1.33;;;13.70;99.90;;;;;;5033884;28;20032;-72
2021/07/05 02:00:17;;;;;;;2.50;1.40;;;13.70;99.90;;;;;;5034305;28;20037;-72
2021/07/05 02:02:45;;;;;;;2.70;1.25;;;13.70;99.90;;;;;;5034121;28;20049;-72
2021/07/05 02:05:13;;;;;;;2.03;1.23;;;13.70;99.90;;;;;;5033798;28;20198;-72
2021/07/05 02:07:39;;;;;;;2.72;1.50;;;13.70;99.90;;;;;;5033823;28;20029;-72
2021/07/05 02:10:11;;;;;;;4.55;1.27;;;13.70;99.90;;;;;;5015924;28;20532;-72
2021/07/05 02:12:39;;;;;;;2.97;1.70;;;13.70;99.90;;;;;;5033409;28;20030;-72
2021/07/05 02:15:07;;;;;;;3.50;1.48;;;13.70;99.90;;;;;;5033645;28;20036;-72
2021/07/05 02:17:34;;;;;;;2.10;1.60;;;13.70;99.90;;;;;;5033374;28;20059;-72
2021/07/05 02:20:00;;;;;;;4.90;1.50;;;13.70;99.90;;;;;;5033549;28;20026;-72
2021/07/05 02:22:26;;;;;;;3.30;1.60;;;13.70;99.90;;;;;;5033953;28;20025;-72
2021/07/05 02:24:51;;;;;;;4.05;1.58;;;13.70;99.90;;;;;;5033449;28;20537;-72
2021/07/05 02:27:18;;;;;;;4.00;1.45;;;13.70;99.90;;;;;;5016364;28;20057;-72
2021/07/05 02:29:43;;;;;;;2.40;1.20;;;13.70;99.90;;;;;;5033400;28;20479;-72
2021/07/05 02:32:09;;;;;;;2.63;1.70;;;13.70;99.90;;;;;;5033287;28;20021;-71
2021/07/05 02:34:35;;;;;;;4.55;1.50;;;13.70;99.90;;;;;;5015533;28;20104;-72
2021/07/05 02:37:00;;;;;;;3.75;1.63;;;13.70;99.90;;;;;;5033470;28;20053;-72
2021/07/05 02:39:26;;;;;;;3.10;1.55;;;13.70;99.90;;;;;;5033662;28;20036;-72
2021/07/05 02:41:51;;;;;;;1.90;1.50;;;13.70;99.90;;;;;;5033381;28;20025;-72
2021/07/05 02:44:18;;;;;;;3.85;1.75;;;13.70;99.90;;;;;;5033398;28;20026;-72
2021/07/05 02:46:43;;;;;;;5.00;1.58;;;13.70;99.90;;;;;;5033297;28;20038;-72
2021/07/05 02:49:09;;;;;;;3.45;1.60;;;13.80;99.90;;;;;;5033535;28;20044;-72
2021/07/05 02:51:35;;;;;;;3.33;1.85;;;13.80;99.90;;;;;;5033269;28;20025;-72
2021/07/05 02:54:00;;;;;;;3.42;1.30;;;13.80;99.90;;;;;;5033163;28;20037;-72
2021/07/05 02:56:26;;;;;;;2.40;1.67;;;13.80;99.90;;;;;;5031286;28;20030;-76
2021/07/05 02:58:51;;;;;;;7.20;1.80;;;13.80;99.90;;;;;;5008747;28;20557;-76
2021/07/05 03:01:18;;;;;;;1.85;1.50;;;13.80;99.90;;;;;;5026354;28;20025;-76
2021/07/05 03:03:44;;;;;;;2.60;1.55;;;13.80;99.90;;;;;;5029532;28;20040;-76
2021/07/05 03:06:10;;;;;;;5.70;1.50;;;13.80;99.90;;;;;;5032424;28;20393;-76
2021/07/05 03:08:35;;;;;;;2.90;1.70;;;13.80;99.90;;;;;;5018466;28;20029;-76
2021/07/05 03:11:01;;;;;;;2.15;1.48;;;13.80;99.90;;;;;;5026498;28;20091;-76
2021/07/05 03:13:27;;;;;;;2.45;1.63;;;13.70;99.90;;;;;;5026245;28;20079;-76
2021/07/05 03:15:53;;;;;;;4.55;1.75;;;13.70;99.90;;;;;;5026244;28;20036;-76
2021/07/05 03:18:19;;;;;;;2.65;1.60;;;13.70;99.90;;;;;;5025600;28;20034;-76
2021/07/05 03:20:48;;;;;;;2.35;1.55;;;13.70;99.90;;;;;;5026548;28;20374;-76
2021/07/05 03:23:16;;;;;;;5.07;1.55;;;13.60;99.90;;;;;;5009582;28;20120;-76
2021/07/05 03:25:42;;;;;;;4.03;1.70;;;13.60;99.90;;;;;;5030872;28;20059;-76
2021/07/05 03:28:09;;;;;;;2.47;1.70;;;13.60;99.90;;;;;;5030350;28;20033;-76
2021/07/05 03:30:37;;;;;;;3.28;1.60;;;13.50;99.90;;;;;;5029918;28;20026;-76
2021/07/05 03:33:04;;;;;;;4.70;1.60;;;13.50;99.90;;;;;;5030197;28;20072;-76
2021/07/05 03:35:30;;;;;;;3.63;1.80;;;13.50;99.90;;;;;;5030123;28;20021;-76
2021/07/05 03:37:56;;;;;;;6.50;1.98;;;13.50;99.90;;;;;;5029904;28;20117;-76
2021/07/05 03:40:26;;;;;;;4.28;1.80;;;13.50;99.90;;;;;;5029819;28;20040;-76
2021/07/05 03:42:53;;;;;;;3.78;1.83;;;13.40;99.90;;;;;;5030340;28;20026;-76
2021/07/05 03:45:21;;;;;;;2.80;1.73;;;13.40;99.90;;;;;;5030144;28;20025;-75
2021/07/05 03:47:47;;;;;;;9.45;2.03;;;13.40;99.90;;;;;;5029121;28;20033;-75
2021/07/05 03:50:14;;;;;;;5.18;1.50;;;13.40;99.90;;;;;;5012367;28;20386;-76
2021/07/05 03:52:41;;;;;;;3.60;1.70;;;13.40;99.90;;;;;;5030080;28;20048;-75
2021/07/05 03:55:09;;;;;;;3.20;1.63;;;13.40;99.90;;;;;;5030026;28;20390;-75
2021/07/05 03:57:34;;;;;;;6.13;1.80;;;13.40;99.90;;;;;;5029399;28;20060;-75
2021/07/05 04:00:00;;;;;;;8.43;1.95;;;13.40;99.90;;;;;;5029733;28;20470;-75
2021/07/05 04:02:26;;;;;;;6.30;2.30;;;13.40;99.90;;;;;;5029800;28;20109;-75
2021/07/05 04:04:54;;;;;;;3.60;1.63;;;13.40;99.90;;;;;;5035696;28;20022;-75
2021/07/05 04:07:20;;;;;;;2.70;2.00;;;13.40;99.90;;;;;;5030269;28;20051;-75
2021/07/05 04:09:46;;;;;;;3.03;1.80;;;13.40;99.90;;;;;;5029287;28;20025;-76
2021/07/05 04:12:13;;;;;;;4.82;2.00;;;13.40;99.90;;;;;;5035605;28;20026;-71
2021/07/05 04:14:40;;;;;;;3.47;1.80;;;13.40;99.90;;;;;;5035994;28;20022;-71
2021/07/05 04:17:06;;;;;;;3.17;1.65;;;13.40;99.90;;;;;;5035851;28;20032;-72
2021/07/05 04:19:31;;;;;;;2.63;1.73;;;13.50;99.90;;;;;;5036005;28;20017;-71
2021/07/05 04:21:57;;;;;;;2.33;1.77;;;13.50;99.90;;;;;;5035708;28;20132;-71
2021/07/05 04:24:23;;;;;;;2.65;1.80;;;13.50;99.90;;;;;;5018158;28;20126;-71
2021/07/05 04:26:49;;;;;;;3.95;1.85;;;13.60;99.90;;;;;;5035612;28;20032;-72
2021/07/05 04:29:14;;;;;;;5.03;1.83;;;13.60;99.90;;;;;;5035568;28;20025;-71
2021/07/05 04:31:40;;;;;;;4.18;1.85;;;13.70;99.90;;;;;;5036028;28;20473;-71
2021/07/05 04:34:06;;;;;;;5.63;1.73;;;13.70;99.90;;;;;;5035524;28;20029;-71
2021/07/05 04:36:31;;;;;;;2.63;1.70;;;13.80;99.90;;;;;;5035421;28;20034;-71
2021/07/05 04:38:57;;;;;;;4.93;1.98;;;13.80;99.90;;;;;;5035455;28;20030;-70
2021/07/05 04:41:23;;;;;;;6.03;2.08;;;13.90;99.90;;;;;;5017527;28;20112;-71
2021/07/05 04:43:48;;;;;;;5.38;2.60;;;13.90;99.90;;;;;;5035619;28;20025;-71
2021/07/05 04:46:16;;;;;;;4.65;2.47;;;14.00;99.90;;;;;;5035361;28;20048;-71
2021/07/05 04:48:42;;;;;;;3.67;1.65;;;14.10;99.90;;;;;;5035408;28;20028;-71
2021/07/05 04:51:08;;;;;;;4.55;1.70;;;14.20;99.90;;;;;;5035666;28;20037;-72
2021/07/05 04:53:33;;;;;;;5.97;1.70;;;14.30;99.90;;;;;;5035176;28;20026;-71
2021/07/05 04:55:59;;;;;;;3.53;1.50;;;14.40;99.90;;;;;;5017281;28;20026;-72
2021/07/05 04:58:25;;;;;;;4.65;1.40;;;14.50;99.90;;;;;;5017231;28;20033;-72
2021/07/05 05:00:51;;;;;;;3.28;1.42;;;14.60;99.90;;;;;;5017652;28;20091;-72
2021/07/05 05:03:17;;;;;;;3.45;1.55;;;14.70;99.90;;;;;;5035202;28;20025;-71
2021/07/05 05:05:43;;;;;;;2.78;1.67;;;14.80;99.90;;;;;;5035019;28;20029;-72
2021/07/05 05:08:10;;;;;;;5.40;1.88;;;14.90;99.90;;;;;;5034803;28;20022;-71
2021/07/05 05:10:36;;;;;;;3.50;1.30;;;15.00;99.90;;;;;;5035165;28;20033;-71
2021/07/05 05:13:02;;;;;;;2.08;1.45;;;15.10;99.90;;;;;;5035067;28;20033;-71
2021/07/05 05:15:27;;;;;;;4.53;1.80;;;15.20;99.90;;;;;;5035129;28;20025;-72
2021/07/05 05:17:53;;;;;;;3.20;1.73;;;15.30;99.90;;;;;;5034318;28;20040;-72
2021/07/05 05:20:20;;;;;;;2.30;1.27;;;15.40;99.90;;;;;;5032320;28;20486;-75
2021/07/05 05:22:47;;;;;;;3.42;1.88;;;15.50;99.90;;;;;;5025849;28;20040;-75
2021/07/05 05:25:13;;;;;;;4.85;1.55;;;15.60;99.90;;;;;;5030366;28;20524;-72
2021/07/05 05:27:39;;;;;;;2.45;1.60;;;15.80;99.90;;;;;;5032476;28;20057;-75
2021/07/05 05:30:07;;;;;;;5.43;1.50;;;15.90;99.90;;;;;;5034013;28;20021;-75
2021/07/05 05:32:33;;;;;;;3.97;1.50;;;15.90;99.90;;;;;;5033963;28;20032;-74
2021/07/05 05:34:58;;;;;;;3.67;1.88;;;16.10;99.90;;;;;;5030946;28;20030;-72
2021/07/05 05:37:24;;;;;;;7.93;1.52;;;16.20;99.90;;;;;;5031194;28;20143;-72
2021/07/05 05:39:49;;;;;;;3.80;1.88;;;16.30;99.90;;;;;;5034863;28;20144;-71
2021/07/05 05:42:15;;;;;;;1.60;1.27;;;16.50;99.90;;;;;;5034107;28;20030;-72
2021/07/05 05:44:44;;;;;;;2.42;1.40;;;16.50;99.90;;;;;;5034444;28;20025;-72
2021/07/05 05:47:13;;;;;;;3.92;1.60;;;16.60;99.90;;;;;;5029101;28;20450;-76
2021/07/05 05:49:39;;;;;;;1.92;1.40;;;16.60;99.90;;;;;;5018576;28;20025;-76
2021/07/05 05:52:06;;;;;;;4.68;1.63;;;16.60;99.90;;;;;;5029838;28;20030;-74
2021/07/05 05:54:32;;;;;;;2.45;1.23;;;16.70;99.90;;;;;;5034059;28;20025;-73
2021/07/05 05:56:57;;;;;;;4.60;1.50;;;16.80;99.90;;;;;;5034184;28;20060;-73
2021/07/05 05:59:23;;;;;;;4.75;1.50;;;16.90;99.90;;;;;;5034656;28;20025;-73
2021/07/05 06:01:51;;;;;;;2.28;1.30;;;17.10;99.90;;;;;;5035212;28;20401;-73
2021/07/05 06:04:18;;;;;;;2.53;1.35;;;17.30;99.90;;;;;;5035745;28;20018;-73
2021/07/05 06:06:43;;;;;;;4.35;1.40;;;17.40;99.90;;;;;;5027684;28;20056;-76
2021/07/05 06:09:09;;;;;;;4.60;1.83;;;17.50;99.90;;;;;;5026662;28;20026;-76
2021/07/05 06:11:37;;;;;;;2.42;1.42;;;17.60;99.90;;;;;;5030743;28;20509;-72
2021/07/05 06:14:04;;;;;;;1.63;1.27;;;17.80;99.90;;;;;;5033978;28;20466;-73
2021/07/05 06:16:30;;;;;;;3.60;1.38;;;17.90;99.90;;;;;;5033509;28;20025;-73
2021/07/05 06:18:56;;;;;;;3.22;1.45;;;18.00;99.90;;;;;;5033619;28;20363;-73
2021/07/05 06:21:22;;;;;;;4.45;1.70;;;18.10;99.90;;;;;;5033360;28;20022;-72
2021/07/05 06:23:48;;;;;;;2.20;1.20;;;18.20;99.90;;;;;;5033924;28;20041;-71
2021/07/05 06:26:15;;;;;;;2.30;1.20;;;18.20;99.90;;;;;;5033629;28;20426;-71
2021/07/05 06:28:41;;;;;;;3.95;1.45;;;18.20;99.90;;;;;;5033476;28;20021;-71
2021/07/05 06:31:06;;;;;;;1.35;1.20;;;18.40;99.90;;;;;;5011176;28;20893;-75
2021/07/05 06:33:36;;;;;;;5.63;1.55;;;18.40;99.90;;;;;;5021024;28;20048;-75
2021/07/05 06:36:02;;;;;;;1.55;1.20;;;18.50;99.90;;;;;;5006632;28;20041;-76
2021/07/05 06:38:28;;;;;;;7.20;1.20;;;18.70;99.90;;;;;;5028576;28;20047;-73
2021/07/05 06:40:56;;;;;;;3.97;1.25;;;18.80;99.90;;;;;;5021703;28;20461;-76
2021/07/05 06:43:22;;;;;;;2.38;1.48;;;18.80;99.90;;;;;;5032375;28;20177;-71
2021/07/05 06:45:47;;;;;;;1.92;1.08;;;18.80;99.90;;;;;;5027036;28;20124;-75
2021/07/05 06:48:13;;;;;;;5.15;1.30;;;18.80;99.90;;;;;;5025477;28;20386;-75
2021/07/05 06:50:39;;;;;;;3.65;1.20;;;18.90;99.90;;;;;;5025513;28;20495;-75
2021/07/05 06:53:06;;;;;;;3.13;1.23;;;19.00;99.90;;;;;;5017048;28;20126;-75
2021/07/05 06:55:31;;;;;;;3.15;1.40;;;19.10;99.90;;;;;;5024334;28;20098;-75
2021/07/05 06:57:57;;;;;;;3.08;1.27;;;19.30;99.90;;;;;;5020575;28;20846;-76
2021/07/05 07:00:25;;;;;;;1.30;1.10;;;19.40;99.90;;;;;;5024861;28;20108;-76
2021/07/05 07:02:51;;;;;;;1.73;1.10;;;19.50;99.90;;;;;;5027932;28;20037;-71
2021/07/05 07:05:19;;;;;;;1.55;1.10;;;19.70;99.90;;;;;;5033215;28;20025;-71
2021/07/05 07:07:47;;;;;;;1.95;1.00;;;19.70;99.90;;;;;;5032818;28;20025;-71
2021/07/05 07:10:15;;;;;;;2.10;1.05;;;19.80;99.90;;;;;;5033168;28;20057;-71
2021/07/05 07:12:46;;;;;;;4.18;1.40;;;20.00;99.90;;;;;;5032995;28;20025;-71
2021/07/05 07:15:12;;;;;;;2.35;1.00;;;20.00;99.90;;;;;;5032973;28;20036;-71
2021/07/05 07:17:39;;;;;;;2.55;1.30;;;20.10;99.90;;;;;;5032415;28;20026;-71
2021/07/05 07:20:07;;;;;;;1.17;0.90;;;20.10;99.90;;;;;;5032976;28;20477;-71
2021/07/05 07:22:34;;;;;;;1.48;1.08;;;20.10;99.90;;;;;;5033135;28;20017;-72
2021/07/05 07:25:00;;;;;;;2.63;1.17;;;20.10;99.90;;;;;;5028745;28;20576;-75
2021/07/05 07:27:26;;;;;;;1.50;1.08;;;20.20;99.90;;;;;;5029591;28;20038;-72
2021/07/05 07:29:51;;;;;;;2.35;1.10;;;20.30;99.90;;;;;;5026128;28;20110;-76
2021/07/05 07:32:17;;;;;;;3.53;0.98;;;20.40;99.90;;;;;;5023377;28;20038;-76
2021/07/05 07:34:44;;;;;;;2.10;1.10;;;20.50;99.90;;;;;;5025625;28;20037;-74
2021/07/05 07:37:10;;;;;;;2.63;0.93;;;20.60;99.90;;;;;;5025024;28;20017;-75
2021/07/05 07:39:44;;;;;;;1.85;1.10;;;20.60;99.90;;;;;;5024968;28;20055;-75
2021/07/05 07:42:10;;;;;;;2.38;1.20;;;20.80;99.90;;;;;;5024256;28;20144;-75
2021/07/05 07:44:36;;;;;;;1.10;1.00;;;20.60;99.90;;;;;;5023709;28;20037;-75
2021/07/05 07:47:03;;;;;;;1.50;1.10;;;20.60;99.90;;;;;;5024296;28;20136;-75
2021/07/05 07:49:30;;;;;;;1.50;1.00;;;20.70;99.90;;;;;;5024902;28;20056;-75
2021/07/05 07:51:57;;;;;;;3.88;1.10;;;20.80;99.90;;;;;;5007242;28;20025;-75
2021/07/05 07:54:23;;;;;;;2.70;0.90;;;20.90;99.90;;;;;;5024015;28;20022;-75
2021/07/05 07:56:49;;;;;;;1.67;1.05;;;20.90;99.90;;;;;;5024658;28;20501;-75
2021/07/05 07:59:14;;;;;;;2.35;1.10;;;20.90;99.90;;;;;;5025075;28;20124;-75
2021/07/05 08:01:40;;;;;;;3.65;1.00;;;21.00;99.90;;;;;;5024778;28;20018;-76
2021/07/05 08:04:05;;;;;;;1.08;0.98;;;20.90;99.90;;;;;;5022981;28;20034;-77
2021/07/05 08:06:31;;;;;;;1.73;1.10;;;20.90;99.90;;;;;;5025099;28;20068;-76
2021/07/05 08:08:57;;;;;;;1.77;1.10;;;20.90;99.90;;;;;;5004235;28;20025;-76
2021/07/05 08:11:23;;;;;;;2.13;1.00;;;20.90;99.90;;;;;;5028918;28;20033;-75
2021/07/05 08:13:48;;;;;;;0.80;0.80;;;21.00;99.90;;;;;;5028712;28;20895;-75
2021/07/05 08:16:15;;;;;;;1.08;0.98;;;21.00;99.90;;;;;;5028904;28;20037;-75
2021/07/05 08:18:41;;;;;;;1.33;0.95;;;21.00;99.90;;;;;;5028406;28;20048;-75
2021/07/05 08:21:07;;;;;;;1.48;1.00;;;21.20;99.90;;;;;;5029608;28;20037;-75
2021/07/05 08:23:32;;;;;;;0.82;0.80;;;21.20;99.90;;;;;;5027506;28;20109;-75
2021/07/05 08:25:59;;;;;;;2.17;1.13;;;21.40;99.90;;;;;;5027871;28;20702;-75
2021/07/05 08:28:25;;;;;;;1.02;0.80;;;21.50;99.90;;;;;;5028353;28;20500;-75
2021/07/05 08:30:54;;;;;;;1.73;1.00;;;21.80;99.90;;;;;;5028093;28;20075;-75
2021/07/05 08:33:19;;;;;;;1.52;1.02;;;21.90;99.90;;;;;;5028537;28;20025;-75
2021/07/05 08:35:45;;;;;;;3.30;1.00;;;22.10;99.90;;;;;;5028810;28;20919;-75
2021/07/05 08:38:10;;;;;;;2.15;0.90;;;22.20;99.90;;;;;;5028273;28;20064;-75
2021/07/05 08:40:36;;;;;;;1.38;0.95;;;22.10;99.90;;;;;;5028251;28;20040;-75
2021/07/05 08:43:03;;;;;;;3.10;1.10;;;22.20;99.90;;;;;;5018984;28;20056;-76
2021/07/05 08:45:28;;;;;;;1.27;0.90;;;22.20;99.90;;;;;;5026232;28;20022;-76
2021/07/05 08:47:56;;;;;;;2.78;1.08;;;22.20;99.90;;;;;;5027356;28;20140;-77
2021/07/05 08:50:23;;;;;;;1.70;0.80;;;22.10;99.90;;;;;;5030073;28;20051;-73
2021/07/05 08:52:49;;;;;;;2.15;1.05;;;22.10;99.90;;;;;;5035544;28;20064;-72
2021/07/05 08:55:19;;;;;;;2.08;0.90;;;22.00;99.90;;;;;;5035256;28;20061;-72
2021/07/05 08:57:45;;;;;;;1.42;0.90;;;22.00;99.90;;;;;;5035493;28;20025;-72
2021/07/05 09:00:20;;;;;;;1.50;0.85;;;22.10;99.90;;;;;;5035055;28;20351;-71
2021/07/05 09:02:47;;;;;;;3.55;1.08;;;22.20;99.90;;;;;;5035104;28;20053;-72
2021/07/05 09:05:13;;;;;;;1.00;0.90;;;22.20;99.90;;;;;;5035426;28;20018;-71
2021/07/05 09:07:57;;;;;;;1.75;1.42;;;22.20;99.90;;;;;;5034783;28;20049;-71
2021/07/05 09:10:23;;;;;;;2.00;1.10;;;22.20;99.90;;;;;;5035206;28;20025;-72
2021/07/05 09:13:15;;;;;;;1.48;0.80;;;22.20;99.90;;;;;;5032333;28;20041;-75
2021/07/05 09:15:47;;;;;;;1.65;1.00;;;22.10;99.90;;;;;;5027078;28;20029;-75
2021/07/05 09:18:35;;;;;;;2.97;0.98;;;22.20;99.90;;;;;;5027317;28;20030;-75
2021/07/05 09:21:18;;;;;;;1.67;0.90;;;22.20;99.90;;;;;;5009163;28;20733;-75
2021/07/05 09:24:12;;;;;;;1.67;1.00;;;22.30;99.90;;;;;;5024201;28;20025;-75
2021/07/05 09:26:41;;;;;;;1.63;1.08;;;22.40;99.90;;;;;;5025707;28;20080;-75
2021/07/05 09:29:20;;;;;;;2.88;1.08;;;22.40;99.90;;;;;;5027623;28;20029;-75
2021/07/05 09:31:57;;;;;;;1.67;0.90;;;22.20;99.90;;;;;;5027731;28;20034;-75
2021/07/05 09:34:41;;;;;;;1.80;1.00;;;22.20;99.90;;;;;;5019004;28;20067;-72
2021/07/05 09:37:23;;;;;;;2.78;1.00;;;22.20;99.90;;;;;;5034356;28;20028;-73
2021/07/05 09:40:04;;;;;;;2.05;0.93;;;22.30;99.90;;;;;;5022777;28;20061;-76
2021/07/05 09:42:32;;;;;;;2.83;1.00;;;22.60;99.90;;;;;;5023817;28;20071;-76
2021/07/05 09:44:59;;;;;;;2.20;1.10;;;22.60;99.90;;;;;;5008098;28;20068;-76
2021/07/05 09:47:26;;;;;;;3.90;1.10;;;22.70;99.90;;;;;;5021802;28;20053;-76
2021/07/05 09:49:57;;;;;;;1.23;0.70;;;22.80;99.90;;;;;;5026111;28;20172;-76
2021/07/05 09:52:27;;;;;;;4.55;1.08;;;22.90;99.90;;;;;;5030658;28;20067;-72
2021/07/05 09:54:54;;;;;;;2.22;0.95;;;22.90;99.90;;;;;;5034224;28;20029;-73
2021/07/05 09:57:32;;;;;;;1.77;0.98;;;23.10;99.90;;;;;;5034021;28;20029;-73
2021/07/05 10:00:07;;;;;;;1.10;0.90;;;23.20;99.90;;;;;;5033825;28;20022;-73
2021/07/05 10:02:34;;;;;;;1.95;0.90;;;23.30;99.90;;;;;;5034011;28;20017;-73
2021/07/05 10:05:17;;;;;;;2.45;1.00;;;23.70;99.90;;;;;;5033258;28;20049;-75
2021/07/05 10:07:56;;;;;;;2.63;0.93;;;23.90;99.90;;;;;;5031238;28;20342;-73
2021/07/05 10:10:22;;;;;;;2.70;1.10;;;24.00;99.90;;;;;;5033915;28;20350;-72
2021/07/05 10:12:54;;;;;;;1.20;0.90;;;24.00;99.90;;;;;;5027811;28;20447;-75
2021/07/05 10:15:22;;;;;;;1.35;1.00;;;24.00;99.90;;;;;;5019771;28;20030;-75
2021/07/05 10:17:48;;;;;;;1.15;0.82;;;24.10;99.90;;;;;;5000237;28;20494;-76
2021/07/05 10:20:22;;;;;;;2.88;1.30;;;24.10;99.90;;;;;;5018524;28;20047;-75
2021/07/05 10:22:50;;;;;;;1.35;1.00;;;24.10;99.90;;;;;;5017747;28;20481;-75
2021/07/05 10:25:17;;;;;;;1.40;0.82;;;24.20;99.90;;;;;;5017649;28;20052;-77
2021/07/05 10:27:44;;;;;;;1.10;0.90;;;24.40;99.90;;;;;;5014976;28;20021;-77
2021/07/05 10:30:11;;;;;;;1.90;0.73;;;24.20;99.90;;;;;;5024675;28;20068;-77
2021/07/05 10:32:38;;;;;;;3.72;1.10;;;24.20;99.90;;;;;;5024580;28;20036;-77
2021/07/05 10:35:06;;;;;;;2.45;0.90;;;24.10;99.90;;;;;;5024846;28;20084;-76
2021/07/05 10:37:54;;;;;;;1.60;1.00;;;24.10;99.90;;;;;;5025037;28;20029;-77
2021/07/05 10:40:33;;;;;;;2.17;1.00;;;23.90;99.90;;;;;;5025421;28;20025;-76
2021/07/05 10:42:59;;;;;;;2.38;1.15;;;23.90;99.90;;;;;;5025580;28;20022;-76
2021/07/05 10:45:40;;;;;;;0.85;0.70;;;23.60;99.90;;;;;;5025240;28;20044;-77
2021/07/05 10:48:07;;;;;;;1.17;0.90;;;23.20;99.90;;;;;;5027556;28;20037;-73
2021/07/05 10:50:43;;;;;;;2.35;1.00;;;23.00;99.90;;;;;;5033514;28;20374;-73
2021/07/05 10:53:11;;;;;;;1.80;1.08;;;22.50;99.90;;;;;;5033140;28;20084;-73
2021/07/05 10:55:44;;;;;;;3.47;1.10;;;22.40;99.90;;;;;;5033385;28;20034;-73
2021/07/05 10:58:27;;;;;;;1.00;0.80;;;22.40;99.90;;;;;;5015126;28;20029;-73
2021/07/05 11:01:02;;;;;;;1.00;0.90;;;22.40;99.90;;;;;;5033117;28;20381;-73
2021/07/05 11:03:39;;;;;;;1.33;1.00;;;22.60;99.90;;;;;;5033069;28;20025;-74
2021/07/05 11:06:10;;;;;;;3.78;1.10;;;22.90;99.90;;;;;;5033301;28;20096;-73
2021/07/05 11:08:44;;;;;;;1.65;1.02;;;23.00;99.90;;;;;;5014884;28;20033;-73
2021/07/05 11:11:22;;;;;;;3.20;0.88;;;23.30;99.90;;;;;;5033256;28;20041;-73
2021/07/05 11:14:07;;;;;;;2.20;0.90;;;23.90;99.90;;;;;;5032767;28;20032;-73
2021/07/05 11:17:14;;;;;;;3.30;1.15;;;24.40;99.90;;;;;;5033225;28;20487;-73
2021/07/05 11:19:50;;;;;;;2.00;0.93;;;24.50;99.90;;;;;;5016290;28;20042;-73
2021/07/05 11:22:18;;;;;;;1.55;1.00;;;24.40;99.90;;;;;;5032630;28;20449;-73
2021/07/05 11:24:49;;;;;;;1.98;0.85;;;24.60;99.90;;;;;;5033459;28;20332;-73
2021/07/05 11:27:25;;;;;;;1.15;0.80;;;24.40;99.90;;;;;;5032751;28;20022;-73
2021/07/05 11:29:51;;;;;;;3.42;1.05;;;24.30;99.90;;;;;;5032925;28;20433;-73
2021/07/05 11:32:38;;;;;;;1.83;1.00;;;24.30;99.90;;;;;;5032859;28;20026;-73
2021/07/05 11:35:25;;;;;;;1.83;1.00;;;24.10;99.90;;;;;;5032917;28;20104;-73
2021/07/05 11:37:55;;;;;;;3.33;1.45;;;24.20;99.90;;;;;;5032856;28;20104;-73
2021/07/05 11:40:46;;;;;;;2.50;0.90;;;24.20;99.90;;;;;;5032788;28;20072;-73
2021/07/05 11:43:13;;;;;;;3.50;1.10;;;24.20;99.90;;;;;;5026830;28;20114;-75
2021/07/05 11:45:51;;;;;;;4.80;1.27;;;24.10;99.90;;;;;;5031829;28;20029;-72
2021/07/05 11:48:41;;;;;;;1.13;0.80;;;24.00;99.90;;;;;;5036660;28;20030;-72
2021/07/05 11:51:25;;;;;;;2.72;1.02;;;23.90;99.90;;;;;;5036393;28;20519;-72
2021/07/05 11:54:01;;;;;;;1.20;1.00;;;23.70;99.90;;;;;;5031381;28;20029;-72
2021/07/05 11:56:38;;;;;;;2.60;1.02;;;23.50;99.90;;;;;;5036200;28;20036;-72
2021/07/05 11:59:07;;;;;;;0.80;0.80;;;23.40;99.90;;;;;;5036559;28;20030;-72
2021/07/05 12:01:34;;;;;;;2.33;0.90;;;23.30;99.90;;;;;;5029467;28;20100;-75
2021/07/05 12:04:01;;;;;;;1.85;0.80;;;23.40;99.90;;;;;;5033450;28;20083;-75
2021/07/05 12:06:27;;;;;;;2.03;1.00;;;23.30;99.90;;;;;;5012184;28;20022;-75
2021/07/05 12:08:59;;;;;;;1.75;1.02;;;23.20;99.90;;;;;;5027749;28;20034;-75
2021/07/05 12:11:31;;;;;;;2.28;0.93;;;23.20;99.90;;;;;;5027673;28;20055;-76
2021/07/05 12:14:09;;;;;;;2.92;0.90;;;23.20;99.90;;;;;;5027165;28;20033;-75
2021/07/05 12:16:37;;;;;;;1.70;1.00;;;23.20;99.90;;;;;;5010057;28;20233;-75
2021/07/05 12:19:03;;;;;;;1.23;0.90;;;23.00;99.90;;;;;;5030851;28;20025;-73
2021/07/05 12:21:34;;;;;;;2.15;1.00;;;22.90;99.90;;;;;;5035936;28;20541;-73
2021/07/05 12:24:09;;;;;;;1.80;0.98;;;22.90;99.90;;;;;;5035953;28;20461;-73
2021/07/05 12:27:02;;;;;;;2.95;1.20;;;22.90;99.90;;;;;;5035877;28;20026;-73
2021/07/05 12:29:36;;;;;;;3.53;0.80;;;22.90;99.90;;;;;;5031872;28;20425;-73
2021/07/05 12:32:11;;;;;;;1.15;0.90;;;22.90;99.90;;;;;;5036008;28;20026;-73
2021/07/05 12:34:42;;;;;;;1.30;0.85;;;22.90;99.90;;;;;;5034426;28;20045;-76
2021/07/05 12:37:18;;;;;;;2.05;0.90;;;22.80;99.90;;;;;;5033344;28;20053;-71
2021/07/05 12:39:47;;;;;;;1.45;0.77;;;22.80;99.90;;;;;;5035952;28;20021;-71
2021/07/05 12:42:54;;;;;;;1.33;0.80;;;22.80;99.90;;;;;;5030543;28;20021;-75
2021/07/05 12:45:23;;;;;;;2.25;1.00;;;22.90;99.90;;;;;;5014279;28;20030;-75
2021/07/05 12:47:55;;;;;;;1.42;0.93;;;23.00;99.90;;;;;;5029436;28;20029;-73
2021/07/05 12:50:27;;;;;;;0.80;0.80;;;22.90;99.90;;;;;;5035347;28;20025;-73
2021/07/05 12:53:20;;;;;;;1.83;1.00;;;23.00;99.90;;;;;;5033443;28;20036;-76
2021/07/05 12:56:07;;;;;;;2.25;0.90;;;23.00;99.90;;;;;;5023437;28;20088;-76